Serene Lakes, California
Current Conditions -  °F | °C
As of 4:52 AM on Monday 22 Dec 2014 (Local Time) from KBLU Reporting Station
Clear Clear  
Wind Chill: 42°   Ceiling: Unl
Heat Index: 44°   Visibility: 10mi
Dew Point: 35°   Wind: 5mph
Humidity: 71%   Direction: 340°NNW
Pressure: 30.31"   Gusts: NA
Location:  39.4261°N, 120.475°W
Report Text: KBLU 221252Z AUTO 34004KT 10SM CLR 07/02 A3031 RMK AO2 SLP240 T00670017
Loading
Personal Weather Stations






























Interactive Weather Map New forecast layout! Learn more

10-Day Weather Forecast

Advertisements
Track Severe Weather on mobile